sensor_id;sensor_type;location;lat;lon;timestamp;temperature;humidity
9915;DHT22;4996;48.746;9.174;2023-12-20T00:01:18;7.40;99.90
9915;DHT22;4996;48.746;9.174;2023-12-20T00:03:44;7.30;99.90
9915;DHT22;4996;48.746;9.174;2023-12-20T00:06:09;7.30;99.90
9915;DHT22;4996;48.746;9.174;2023-12-20T00:08:35;7.30;99.90
9915;DHT22;4996;48.746;9.174;2023-12-20T00:11:01;7.60;99.90
9915;DHT22;4996;48.746;9.174;2023-12-20T00:13:26;7.30;99.90
9915;DHT22;4996;48.746;9.174;2023-12-20T00:15:52;7.40;99.90
9915;DHT22;4996;48.746;9.174;2023-12-20T00:18:17;7.50;99.90
9915;DHT22;4996;48.746;9.174;2023-12-20T00:20:43;7.40;99.90
9915;DHT22;4996;48.746;9.174;2023-12-20T00:23:08;7.50;99.90
9915;DHT22;4996;48.746;9.174;2023-12-20T00:25:34;7.60;99.90
9915;DHT22;4996;48.746;9.174;2023-12-20T00:28:00;7.60;99.90
9915;DHT22;4996;48.746;9.174;2023-12-20T00:30:26;7.50;99.90
9915;DHT22;4996;48.746;9.174;2023-12-20T00:32:51;7.40;99.90
9915;DHT22;4996;48.746;9.174;2023-12-20T00:35:18;7.50;99.90
9915;DHT22;4996;48.746;9.174;2023-12-20T00:37:44;7.50;99.90
9915;DHT22;4996;48.746;9.174;2023-12-20T00:40:10;7.50;99.90
9915;DHT22;4996;48.746;9.174;2023-12-20T00:42:35;7.40;99.90
9915;DHT22;4996;48.746;9.174;2023-12-20T00:45:02;7.40;99.90
9915;DHT22;4996;48.746;9.174;2023-12-20T00:47:28;7.40;99.90
9915;DHT22;4996;48.746;9.174;2023-12-20T00:49:53;7.30;99.90
9915;DHT22;4996;48.746;9.174;2023-12-20T00:52:19;7.20;99.90
9915;DHT22;4996;48.746;9.174;2023-12-20T00:54:45;7.00;99.90
9915;DHT22;4996;48.746;9.174;2023-12-20T00:57:10;7.10;99.90
9915;DHT22;4996;48.746;9.174;2023-12-20T00:59:36;7.00;99.90
9915;DHT22;4996;48.746;9.174;2023-12-20T01:02:02;7.10;99.90
9915;DHT22;4996;48.746;9.174;2023-12-20T01:04:27;7.10;99.90
9915;DHT22;4996;48.746;9.174;2023-12-20T01:06:53;7.10;99.90
9915;DHT22;4996;48.746;9.174;2023-12-20T01:09:19;7.20;99.90
9915;DHT22;4996;48.746;9.174;2023-12-20T01:11:44;7.20;99.90
9915;DHT22;4996;48.746;9.174;2023-12-20T01:14:11;7.30;99.90
9915;DHT22;4996;48.746;9.174;2023-12-20T01:16:37;7.20;99.90
9915;DHT22;4996;48.746;9.174;2023-12-20T01:19:02;7.20;99.90
9915;DHT22;4996;48.746;9.174;2023-12-20T01:21:28;7.20;99.90
9915;DHT22;4996;48.746;9.174;2023-12-20T01:23:53;6.90;99.90
9915;DHT22;4996;48.746;9.174;2023-12-20T01:26:19;6.90;99.90
9915;DHT22;4996;48.746;9.174;2023-12-20T01:28:44;6.90;99.90
9915;DHT22;4996;48.746;9.174;2023-12-20T01:31:10;7.00;99.90
9915;DHT22;4996;48.746;9.174;2023-12-20T01:33:35;7.00;99.90
9915;DHT22;4996;48.746;9.174;2023-12-20T01:36:01;7.10;99.90
9915;DHT22;4996;48.746;9.174;2023-12-20T01:38:26;7.10;99.90
9915;DHT22;4996;48.746;9.174;2023-12-20T01:40:52;7.10;99.90
9915;DHT22;4996;48.746;9.174;2023-12-20T01:43:17;7.20;99.90
9915;DHT22;4996;48.746;9.174;2023-12-20T01:45:43;7.30;99.90
9915;DHT22;4996;48.746;9.174;2023-12-20T01:48:09;7.30;99.90
9915;DHT22;4996;48.746;9.174;2023-12-20T01:50:36;7.40;99.90
9915;DHT22;4996;48.746;9.174;2023-12-20T01:53:03;7.40;99.90
9915;DHT22;4996;48.746;9.174;2023-12-20T01:55:33;7.40;99.90
9915;DHT22;4996;48.746;9.174;2023-12-20T01:58:00;7.40;99.90
9915;DHT22;4996;48.746;9.174;2023-12-20T02:00:27;7.40;99.90
9915;DHT22;4996;48.746;9.174;2023-12-20T02:02:54;7.40;99.90
9915;DHT22;4996;48.746;9.174;2023-12-20T02:05:22;7.50;99.90
9915;DHT22;4996;48.746;9.174;2023-12-20T02:07:49;7.50;99.90
9915;DHT22;4996;48.746;9.174;2023-12-20T02:10:15;7.60;99.90
9915;DHT22;4996;48.746;9.174;2023-12-20T02:12:41;7.50;99.90
9915;DHT22;4996;48.746;9.174;2023-12-20T02:15:07;7.40;99.90
9915;DHT22;4996;48.746;9.174;2023-12-20T02:17:33;7.50;99.90
9915;DHT22;4996;48.746;9.174;2023-12-20T02:19:59;7.60;99.90
9915;DHT22;4996;48.746;9.174;2023-12-20T02:22:24;7.60;99.90
9915;DHT22;4996;48.746;9.174;2023-12-20T02:24:50;7.60;99.90
9915;DHT22;4996;48.746;9.174;2023-12-20T02:27:17;7.60;99.90
9915;DHT22;4996;48.746;9.174;2023-12-20T02:29:43;7.50;99.90
9915;DHT22;4996;48.746;9.174;2023-12-20T02:32:09;7.60;99.90
9915;DHT22;4996;48.746;9.174;2023-12-20T02:34:34;7.70;99.90
9915;DHT22;4996;48.746;9.174;2023-12-20T02:37:00;7.60;99.90
9915;DHT22;4996;48.746;9.174;2023-12-20T02:39:25;7.70;99.90
9915;DHT22;4996;48.746;9.174;2023-12-20T02:41:51;7.70;99.90
9915;DHT22;4996;48.746;9.174;2023-12-20T02:44:16;7.70;99.90
9915;DHT22;4996;48.746;9.174;2023-12-20T02:46:42;7.70;99.90
9915;DHT22;4996;48.746;9.174;2023-12-20T02:49:07;7.70;99.90
9915;DHT22;4996;48.746;9.174;2023-12-20T02:51:33;7.60;99.90
9915;DHT22;4996;48.746;9.174;2023-12-20T02:53:58;7.70;99.90
9915;DHT22;4996;48.746;9.174;2023-12-20T02:56:24;7.70;99.90
9915;DHT22;4996;48.746;9.174;2023-12-20T02:58:49;7.70;99.90
9915;DHT22;4996;48.746;9.174;2023-12-20T03:01:15;7.70;99.90
9915;DHT22;4996;48.746;9.174;2023-12-20T03:03:40;7.70;99.90
9915;DHT22;4996;48.746;9.174;2023-12-20T03:06:06;7.70;99.90
9915;DHT22;4996;48.746;9.174;2023-12-20T03:08:31;7.80;99.90
9915;DHT22;4996;48.746;9.174;2023-12-20T03:11:01;7.80;99.90
9915;DHT22;4996;48.746;9.174;2023-12-20T03:13:27;7.60;99.90
9915;DHT22;4996;48.746;9.174;2023-12-20T03:15:52;7.60;99.90
9915;DHT22;4996;48.746;9.174;2023-12-20T03:18:17;7.60;99.90
9915;DHT22;4996;48.746;9.174;2023-12-20T03:20:43;7.60;99.90
9915;DHT22;4996;48.746;9.174;2023-12-20T03:23:09;7.70;99.90
9915;DHT22;4996;48.746;9.174;2023-12-20T03:25:35;7.80;99.90
9915;DHT22;4996;48.746;9.174;2023-12-20T03:28:00;7.70;99.90
9915;DHT22;4996;48.746;9.174;2023-12-20T03:30:26;7.80;99.90
9915;DHT22;4996;48.746;9.174;2023-12-20T03:32:51;7.70;99.90
9915;DHT22;4996;48.746;9.174;2023-12-20T03:35:17;7.70;99.90
9915;DHT22;4996;48.746;9.174;2023-12-20T03:37:42;7.60;99.90
9915;DHT22;4996;48.746;9.174;2023-12-20T03:40:08;7.50;99.90
9915;DHT22;4996;48.746;9.174;2023-12-20T03:42:34;7.40;99.90
9915;DHT22;4996;48.746;9.174;2023-12-20T03:45:00;7.40;99.90
9915;DHT22;4996;48.746;9.174;2023-12-20T03:47:25;7.40;99.90
9915;DHT22;4996;48.746;9.174;2023-12-20T03:49:50;7.50;99.90
9915;DHT22;4996;48.746;9.174;2023-12-20T03:52:16;7.60;99.90
9915;DHT22;4996;48.746;9.174;2023-12-20T03:54:41;7.60;99.90
9915;DHT22;4996;48.746;9.174;2023-12-20T03:57:08;7.30;99.90
9915;DHT22;4996;48.746;9.174;2023-12-20T03:59:37;7.20;99.90
9915;DHT22;4996;48.746;9.174;2023-12-20T04:02:03;7.10;99.90
9915;DHT22;4996;48.746;9.174;2023-12-20T04:04:28;7.20;99.90
9915;DHT22;4996;48.746;9.174;2023-12-20T04:06:55;7.20;99.90
9915;DHT22;4996;48.746;9.174;2023-12-20T04:09:20;7.20;99.90
9915;DHT22;4996;48.746;9.174;2023-12-20T04:11:46;7.20;99.90
9915;DHT22;4996;48.746;9.174;2023-12-20T04:14:12;7.20;99.90
9915;DHT22;4996;48.746;9.174;2023-12-20T04:16:37;7.10;99.90
9915;DHT22;4996;48.746;9.174;2023-12-20T04:19:04;7.40;99.90
9915;DHT22;4996;48.746;9.174;2023-12-20T04:21:29;7.20;99.90
9915;DHT22;4996;48.746;9.174;2023-12-20T04:23:55;7.20;99.90
9915;DHT22;4996;48.746;9.174;2023-12-20T04:26:20;7.30;99.90
9915;DHT22;4996;48.746;9.174;2023-12-20T04:28:46;7.20;99.90
9915;DHT22;4996;48.746;9.174;2023-12-20T04:31:11;7.20;99.90
9915;DHT22;4996;48.746;9.174;2023-12-20T04:33:37;7.10;99.90
9915;DHT22;4996;48.746;9.174;2023-12-20T04:36:03;7.20;99.90
9915;DHT22;4996;48.746;9.174;2023-12-20T04:38:29;7.10;99.90
9915;DHT22;4996;48.746;9.174;2023-12-20T04:40:55;7.00;99.90
9915;DHT22;4996;48.746;9.174;2023-12-20T04:43:21;7.10;99.90
9915;DHT22;4996;48.746;9.174;2023-12-20T04:45:46;7.20;99.90
9915;DHT22;4996;48.746;9.174;2023-12-20T04:48:12;7.10;99.90
9915;DHT22;4996;48.746;9.174;2023-12-20T04:50:38;7.00;99.90
9915;DHT22;4996;48.746;9.174;2023-12-20T04:53:03;7.00;99.90
9915;DHT22;4996;48.746;9.174;2023-12-20T04:55:29;7.00;99.90
9915;DHT22;4996;48.746;9.174;2023-12-20T04:57:54;7.00;99.90
9915;DHT22;4996;48.746;9.174;2023-12-20T05:00:20;6.90;99.90
9915;DHT22;4996;48.746;9.174;2023-12-20T05:02:46;6.90;99.90
9915;DHT22;4996;48.746;9.174;2023-12-20T05:05:11;7.00;99.90
9915;DHT22;4996;48.746;9.174;2023-12-20T05:07:37;7.10;99.90
9915;DHT22;4996;48.746;9.174;2023-12-20T05:10:03;6.90;99.90
9915;DHT22;4996;48.746;9.174;2023-12-20T05:12:30;6.80;99.90
9915;DHT22;4996;48.746;9.174;2023-12-20T05:14:55;6.80;99.90
9915;DHT22;4996;48.746;9.174;2023-12-20T05:17:21;6.80;99.90
9915;DHT22;4996;48.746;9.174;2023-12-20T05:19:46;6.80;99.90
9915;DHT22;4996;48.746;9.174;2023-12-20T05:22:12;6.70;99.90
9915;DHT22;4996;48.746;9.174;2023-12-20T05:24:37;6.80;99.90
9915;DHT22;4996;48.746;9.174;2023-12-20T05:27:03;6.60;99.90
9915;DHT22;4996;48.746;9.174;2023-12-20T05:29:29;6.60;99.90
9915;DHT22;4996;48.746;9.174;2023-12-20T05:31:54;6.50;99.90
9915;DHT22;4996;48.746;9.174;2023-12-20T05:34:20;6.50;99.90
9915;DHT22;4996;48.746;9.174;2023-12-20T05:36:45;6.50;99.90
9915;DHT22;4996;48.746;9.174;2023-12-20T05:39:11;6.50;99.90
9915;DHT22;4996;48.746;9.174;2023-12-20T05:41:37;6.60;99.90
9915;DHT22;4996;48.746;9.174;2023-12-20T05:44:02;6.60;99.90
9915;DHT22;4996;48.746;9.174;2023-12-20T05:46:28;6.60;99.90
9915;DHT22;4996;48.746;9.174;2023-12-20T05:48:53;6.60;99.90
9915;DHT22;4996;48.746;9.174;2023-12-20T05:51:19;6.70;99.90
9915;DHT22;4996;48.746;9.174;2023-12-20T05:53:44;6.80;99.90
9915;DHT22;4996;48.746;9.174;2023-12-20T05:56:10;6.80;99.90
9915;DHT22;4996;48.746;9.174;2023-12-20T05:58:36;6.80;99.90
9915;DHT22;4996;48.746;9.174;2023-12-20T06:01:04;6.90;99.90
9915;DHT22;4996;48.746;9.174;2023-12-20T06:03:29;6.90;99.90
9915;DHT22;4996;48.746;9.174;2023-12-20T06:05:55;6.90;99.90
9915;DHT22;4996;48.746;9.174;2023-12-20T06:08:21;7.00;99.90
9915;DHT22;4996;48.746;9.174;2023-12-20T06:10:46;6.70;99.90
9915;DHT22;4996;48.746;9.174;2023-12-20T06:13:12;6.70;99.90
9915;DHT22;4996;48.746;9.174;2023-12-20T06:15:38;6.80;99.90
9915;DHT22;4996;48.746;9.174;2023-12-20T06:18:04;6.80;99.90
9915;DHT22;4996;48.746;9.174;2023-12-20T06:20:29;6.90;99.90
9915;DHT22;4996;48.746;9.174;2023-12-20T06:22:55;7.00;99.90
9915;DHT22;4996;48.746;9.174;2023-12-20T06:25:20;7.10;99.90
9915;DHT22;4996;48.746;9.174;2023-12-20T06:27:46;7.10;99.90
9915;DHT22;4996;48.746;9.174;2023-12-20T06:30:12;7.20;99.90
9915;DHT22;4996;48.746;9.174;2023-12-20T06:32:38;7.00;99.90
9915;DHT22;4996;48.746;9.174;2023-12-20T06:35:05;7.00;99.90
9915;DHT22;4996;48.746;9.174;2023-12-20T06:37:31;7.00;99.90
9915;DHT22;4996;48.746;9.174;2023-12-20T06:39:56;7.00;99.90
9915;DHT22;4996;48.746;9.174;2023-12-20T06:42:23;6.90;99.90
9915;DHT22;4996;48.746;9.174;2023-12-20T06:44:48;6.80;99.90
9915;DHT22;4996;48.746;9.174;2023-12-20T06:47:14;7.00;99.90
9915;DHT22;4996;48.746;9.174;2023-12-20T06:49:40;7.00;99.90
9915;DHT22;4996;48.746;9.174;2023-12-20T06:52:06;7.10;99.90
9915;DHT22;4996;48.746;9.174;2023-12-20T06:54:31;7.10;99.90
9915;DHT22;4996;48.746;9.174;2023-12-20T06:56:59;7.20;99.90
9915;DHT22;4996;48.746;9.174;2023-12-20T06:59:25;7.20;99.90
9915;DHT22;4996;48.746;9.174;2023-12-20T07:01:51;7.20;99.90
9915;DHT22;4996;48.746;9.174;2023-12-20T07:04:17;7.10;99.90
9915;DHT22;4996;48.746;9.174;2023-12-20T07:06:46;7.20;99.90
9915;DHT22;4996;48.746;9.174;2023-12-20T07:09:13;7.10;99.90
9915;DHT22;4996;48.746;9.174;2023-12-20T07:11:38;7.10;99.90
9915;DHT22;4996;48.746;9.174;2023-12-20T07:14:04;7.20;99.90
9915;DHT22;4996;48.746;9.174;2023-12-20T07:16:29;7.20;99.90
9915;DHT22;4996;48.746;9.174;2023-12-20T07:18:55;7.20;99.90
9915;DHT22;4996;48.746;9.174;2023-12-20T07:21:21;7.30;99.90
9915;DHT22;4996;48.746;9.174;2023-12-20T07:23:47;7.20;99.90
9915;DHT22;4996;48.746;9.174;2023-12-20T07:26:12;7.20;99.90
9915;DHT22;4996;48.746;9.174;2023-12-20T07:28:38;7.30;99.90
9915;DHT22;4996;48.746;9.174;2023-12-20T07:31:03;7.30;99.90
9915;DHT22;4996;48.746;9.174;2023-12-20T07:33:29;7.30;99.90
9915;DHT22;4996;48.746;9.174;2023-12-20T07:35:55;7.10;99.90
9915;DHT22;4996;48.746;9.174;2023-12-20T07:38:20;6.90;99.90
9915;DHT22;4996;48.746;9.174;2023-12-20T07:40:46;6.90;99.90
9915;DHT22;4996;48.746;9.174;2023-12-20T07:43:11;6.80;99.90
9915;DHT22;4996;48.746;9.174;2023-12-20T07:45:37;6.80;99.90
9915;DHT22;4996;48.746;9.174;2023-12-20T07:48:03;6.70;99.90
9915;DHT22;4996;48.746;9.174;2023-12-20T07:50:30;6.40;99.90
9915;DHT22;4996;48.746;9.174;2023-12-20T07:52:55;6.50;99.90
9915;DHT22;4996;48.746;9.174;2023-12-20T07:55:21;6.50;99.90
9915;DHT22;4996;48.746;9.174;2023-12-20T07:57:46;6.50;99.90
9915;DHT22;4996;48.746;9.174;2023-12-20T08:00:12;6.50;99.90
9915;DHT22;4996;48.746;9.174;2023-12-20T08:02:38;6.60;99.90
9915;DHT22;4996;48.746;9.174;2023-12-20T08:05:03;6.60;99.90
9915;DHT22;4996;48.746;9.174;2023-12-20T08:07:29;6.50;99.90
9915;DHT22;4996;48.746;9.174;2023-12-20T08:09:54;6.70;99.90
9915;DHT22;4996;48.746;9.174;2023-12-20T08:12:22;6.60;99.90
9915;DHT22;4996;48.746;9.174;2023-12-20T08:14:47;6.50;99.90
9915;DHT22;4996;48.746;9.174;2023-12-20T08:17:13;6.40;99.90
9915;DHT22;4996;48.746;9.174;2023-12-20T08:19:41;6.40;99.90
9915;DHT22;4996;48.746;9.174;2023-12-20T08:22:07;6.50;99.90
9915;DHT22;4996;48.746;9.174;2023-12-20T08:24:32;6.50;99.90
9915;DHT22;4996;48.746;9.174;2023-12-20T08:26:58;6.50;99.90
9915;DHT22;4996;48.746;9.174;2023-12-20T08:29:23;6.60;99.90
9915;DHT22;4996;48.746;9.174;2023-12-20T08:31:53;6.60;99.90
9915;DHT22;4996;48.746;9.174;2023-12-20T08:34:19;6.70;99.90
9915;DHT22;4996;48.746;9.174;2023-12-20T08:36:44;6.70;99.90
9915;DHT22;4996;48.746;9.174;2023-12-20T08:39:10;6.60;99.90
9915;DHT22;4996;48.746;9.174;2023-12-20T08:41:36;6.60;99.90
9915;DHT22;4996;48.746;9.174;2023-12-20T08:44:02;6.50;99.90
9915;DHT22;4996;48.746;9.174;2023-12-20T08:46:28;6.60;99.90
9915;DHT22;4996;48.746;9.174;2023-12-20T08:48:53;6.50;99.90
9915;DHT22;4996;48.746;9.174;2023-12-20T08:51:19;6.40;99.90
9915;DHT22;4996;48.746;9.174;2023-12-20T08:53:44;6.50;99.90
9915;DHT22;4996;48.746;9.174;2023-12-20T08:56:11;6.60;99.90
9915;DHT22;4996;48.746;9.174;2023-12-20T08:58:37;6.70;99.90
9915;DHT22;4996;48.746;9.174;2023-12-20T09:01:03;6.70;99.90
9915;DHT22;4996;48.746;9.174;2023-12-20T09:03:28;6.60;99.90
9915;DHT22;4996;48.746;9.174;2023-12-20T09:05:54;6.50;99.90
9915;DHT22;4996;48.746;9.174;2023-12-20T09:08:19;6.60;99.90
9915;DHT22;4996;48.746;9.174;2023-12-20T09:10:45;6.80;99.90
9915;DHT22;4996;48.746;9.174;2023-12-20T09:13:10;7.00;99.90
9915;DHT22;4996;48.746;9.174;2023-12-20T09:15:36;7.10;99.90
9915;DHT22;4996;48.746;9.174;2023-12-20T09:18:02;7.10;99.90
9915;DHT22;4996;48.746;9.174;2023-12-20T09:20:27;7.20;99.90
9915;DHT22;4996;48.746;9.174;2023-12-20T09:22:53;7.30;99.90
9915;DHT22;4996;48.746;9.174;2023-12-20T09:25:19;7.50;99.90
9915;DHT22;4996;48.746;9.174;2023-12-20T09:27:47;7.50;99.90
9915;DHT22;4996;48.746;9.174;2023-12-20T09:30:13;7.90;99.90
9915;DHT22;4996;48.746;9.174;2023-12-20T09:32:38;7.50;99.90
9915;DHT22;4996;48.746;9.174;2023-12-20T09:35:04;7.70;99.90
9915;DHT22;4996;48.746;9.174;2023-12-20T09:37:31;7.60;99.90
9915;DHT22;4996;48.746;9.174;2023-12-20T09:39:57;7.80;99.90
9915;DHT22;4996;48.746;9.174;2023-12-20T09:42:37;7.70;99.90
9915;DHT22;4996;48.746;9.174;2023-12-20T09:45:04;7.90;99.90
9915;DHT22;4996;48.746;9.174;2023-12-20T09:47:32;8.00;99.90
9915;DHT22;4996;48.746;9.174;2023-12-20T09:49:58;7.70;99.90
9915;DHT22;4996;48.746;9.174;2023-12-20T09:52:24;7.60;99.90
9915;DHT22;4996;48.746;9.174;2023-12-20T09:54:51;7.70;99.90
9915;DHT22;4996;48.746;9.174;2023-12-20T09:57:17;7.80;99.90
9915;DHT22;4996;48.746;9.174;2023-12-20T09:59:43;8.10;99.90
9915;DHT22;4996;48.746;9.174;2023-12-20T10:02:12;8.10;99.90
9915;DHT22;4996;48.746;9.174;2023-12-20T10:04:42;7.90;99.90
9915;DHT22;4996;48.746;9.174;2023-12-20T10:07:10;8.00;99.90
9915;DHT22;4996;48.746;9.174;2023-12-20T10:09:35;8.10;99.90
9915;DHT22;4996;48.746;9.174;2023-12-20T10:12:01;7.90;99.90
9915;DHT22;4996;48.746;9.174;2023-12-20T10:14:27;7.80;99.90
9915;DHT22;4996;48.746;9.174;2023-12-20T10:16:52;8.00;99.90
9915;DHT22;4996;48.746;9.174;2023-12-20T10:19:19;8.20;99.90
9915;DHT22;4996;48.746;9.174;2023-12-20T10:21:45;8.30;99.90
9915;DHT22;4996;48.746;9.174;2023-12-20T10:24:17;8.20;99.90
9915;DHT22;4996;48.746;9.174;2023-12-20T10:26:42;8.30;99.90
9915;DHT22;4996;48.746;9.174;2023-12-20T10:29:08;7.90;99.90
9915;DHT22;4996;48.746;9.174;2023-12-20T10:31:35;7.80;99.90
9915;DHT22;4996;48.746;9.174;2023-12-20T10:34:02;7.70;99.90
9915;DHT22;4996;48.746;9.174;2023-12-20T10:36:30;7.50;99.90
9915;DHT22;4996;48.746;9.174;2023-12-20T10:38:57;7.40;99.90
9915;DHT22;4996;48.746;9.174;2023-12-20T10:41:26;7.20;99.90
9915;DHT22;4996;48.746;9.174;2023-12-20T10:44:00;6.90;99.90
9915;DHT22;4996;48.746;9.174;2023-12-20T10:46:27;7.00;99.90
9915;DHT22;4996;48.746;9.174;2023-12-20T10:48:54;7.20;99.90
9915;DHT22;4996;48.746;9.174;2023-12-20T10:51:20;7.50;99.90
9915;DHT22;4996;48.746;9.174;2023-12-20T10:53:47;7.60;99.90
9915;DHT22;4996;48.746;9.174;2023-12-20T10:56:19;7.50;99.90
9915;DHT22;4996;48.746;9.174;2023-12-20T10:58:48;7.40;99.90
9915;DHT22;4996;48.746;9.174;2023-12-20T11:01:15;7.50;99.90
9915;DHT22;4996;48.746;9.174;2023-12-20T11:03:48;7.40;99.90
9915;DHT22;4996;48.746;9.174;2023-12-20T11:09:10;7.20;99.90
9915;DHT22;4996;48.746;9.174;2023-12-20T11:11:44;7.20;99.90
9915;DHT22;4996;48.746;9.174;2023-12-20T11:14:22;7.10;99.90
9915;DHT22;4996;48.746;9.174;2023-12-20T11:16:49;7.30;99.90
9915;DHT22;4996;48.746;9.174;2023-12-20T11:19:16;7.30;99.90
9915;DHT22;4996;48.746;9.174;2023-12-20T11:21:42;7.20;99.90
9915;DHT22;4996;48.746;9.174;2023-12-20T11:24:08;7.00;99.90
9915;DHT22;4996;48.746;9.174;2023-12-20T11:26:34;6.90;99.90
9915;DHT22;4996;48.746;9.174;2023-12-20T11:29:31;7.00;99.90
9915;DHT22;4996;48.746;9.174;2023-12-20T11:32:00;6.70;99.90
9915;DHT22;4996;48.746;9.174;2023-12-20T11:34:31;6.70;99.90
9915;DHT22;4996;48.746;9.174;2023-12-20T11:36:59;6.90;99.90
9915;DHT22;4996;48.746;9.174;2023-12-20T11:39:26;7.10;99.90
9915;DHT22;4996;48.746;9.174;2023-12-20T11:41:54;7.00;99.90
9915;DHT22;4996;48.746;9.174;2023-12-20T11:44:21;7.00;99.90
9915;DHT22;4996;48.746;9.174;2023-12-20T11:46:47;6.90;99.90
9915;DHT22;4996;48.746;9.174;2023-12-20T11:49:12;7.10;99.90
9915;DHT22;4996;48.746;9.174;2023-12-20T11:51:41;7.30;99.90
9915;DHT22;4996;48.746;9.174;2023-12-20T11:54:07;7.40;99.90
9915;DHT22;4996;48.746;9.174;2023-12-20T11:56:35;7.30;99.90
9915;DHT22;4996;48.746;9.174;2023-12-20T11:59:01;7.20;99.90
9915;DHT22;4996;48.746;9.174;2023-12-20T12:01:26;7.10;99.90
9915;DHT22;4996;48.746;9.174;2023-12-20T12:04:05;7.10;99.90
9915;DHT22;4996;48.746;9.174;2023-12-20T12:06:31;7.00;99.90
9915;DHT22;4996;48.746;9.174;2023-12-20T12:08:57;6.90;99.90
9915;DHT22;4996;48.746;9.174;2023-12-20T12:11:23;6.90;99.90
9915;DHT22;4996;48.746;9.174;2023-12-20T12:13:49;7.00;99.90
9915;DHT22;4996;48.746;9.174;2023-12-20T12:16:19;7.00;99.90
9915;DHT22;4996;48.746;9.174;2023-12-20T12:18:45;7.00;99.90
9915;DHT22;4996;48.746;9.174;2023-12-20T12:21:18;6.90;99.90
9915;DHT22;4996;48.746;9.174;2023-12-20T12:23:43;7.00;99.90
9915;DHT22;4996;48.746;9.174;2023-12-20T12:26:09;6.90;99.90
9915;DHT22;4996;48.746;9.174;2023-12-20T12:28:34;6.80;99.90
9915;DHT22;4996;48.746;9.174;2023-12-20T12:31:00;7.00;99.90
9915;DHT22;4996;48.746;9.174;2023-12-20T12:33:26;7.20;99.90
9915;DHT22;4996;48.746;9.174;2023-12-20T12:35:52;7.30;99.90
9915;DHT22;4996;48.746;9.174;2023-12-20T12:38:21;7.10;99.90
9915;DHT22;4996;48.746;9.174;2023-12-20T12:40:47;7.10;99.90
9915;DHT22;4996;48.746;9.174;2023-12-20T12:43:12;7.10;99.90
9915;DHT22;4996;48.746;9.174;2023-12-20T12:45:38;7.30;99.90
9915;DHT22;4996;48.746;9.174;2023-12-20T12:48:04;7.40;99.90
9915;DHT22;4996;48.746;9.174;2023-12-20T12:50:31;7.70;99.90
9915;DHT22;4996;48.746;9.174;2023-12-20T12:52:56;7.70;99.90
9915;DHT22;4996;48.746;9.174;2023-12-20T12:55:22;7.50;99.90
9915;DHT22;4996;48.746;9.174;2023-12-20T12:57:47;7.50;99.90
9915;DHT22;4996;48.746;9.174;2023-12-20T13:00:13;7.50;99.90
9915;DHT22;4996;48.746;9.174;2023-12-20T13:02:39;7.40;99.90
9915;DHT22;4996;48.746;9.174;2023-12-20T13:05:07;7.50;99.90
9915;DHT22;4996;48.746;9.174;2023-12-20T13:07:34;7.40;99.90
9915;DHT22;4996;48.746;9.174;2023-12-20T13:09:59;7.40;99.90
9915;DHT22;4996;48.746;9.174;2023-12-20T13:12:25;7.40;99.90
9915;DHT22;4996;48.746;9.174;2023-12-20T13:14:51;7.40;99.90
9915;DHT22;4996;48.746;9.174;2023-12-20T13:17:17;7.50;99.90
9915;DHT22;4996;48.746;9.174;2023-12-20T13:19:42;7.60;99.90
9915;DHT22;4996;48.746;9.174;2023-12-20T13:22:08;7.70;99.90
9915;DHT22;4996;48.746;9.174;2023-12-20T13:24:34;7.70;99.90
9915;DHT22;4996;48.746;9.174;2023-12-20T13:27:00;7.60;99.90
9915;DHT22;4996;48.746;9.174;2023-12-20T13:29:25;7.70;99.90
9915;DHT22;4996;48.746;9.174;2023-12-20T13:31:52;7.90;99.90
9915;DHT22;4996;48.746;9.174;2023-12-20T13:34:18;8.00;99.90
9915;DHT22;4996;48.746;9.174;2023-12-20T13:36:44;8.00;99.90
9915;DHT22;4996;48.746;9.174;2023-12-20T13:39:13;8.00;99.90
9915;DHT22;4996;48.746;9.174;2023-12-20T13:41:39;7.90;99.90
9915;DHT22;4996;48.746;9.174;2023-12-20T13:44:05;7.70;99.90
9915;DHT22;4996;48.746;9.174;2023-12-20T13:46:30;7.70;99.90
9915;DHT22;4996;48.746;9.174;2023-12-20T13:48:56;7.70;99.90
9915;DHT22;4996;48.746;9.174;2023-12-20T13:51:22;7.50;99.90
9915;DHT22;4996;48.746;9.174;2023-12-20T13:53:48;7.30;99.90
9915;DHT22;4996;48.746;9.174;2023-12-20T13:56:14;7.30;99.90
9915;DHT22;4996;48.746;9.174;2023-12-20T13:58:40;7.10;99.90
9915;DHT22;4996;48.746;9.174;2023-12-20T14:01:07;6.90;99.90
9915;DHT22;4996;48.746;9.174;2023-12-20T14:03:34;7.00;99.90
9915;DHT22;4996;48.746;9.174;2023-12-20T14:06:00;6.80;99.90
9915;DHT22;4996;48.746;9.174;2023-12-20T14:08:26;6.70;99.90
9915;DHT22;4996;48.746;9.174;2023-12-20T14:10:52;6.60;99.90
9915;DHT22;4996;48.746;9.174;2023-12-20T14:13:18;6.70;99.90
9915;DHT22;4996;48.746;9.174;2023-12-20T14:15:44;6.90;99.90
9915;DHT22;4996;48.746;9.174;2023-12-20T14:18:09;7.20;99.90
9915;DHT22;4996;48.746;9.174;2023-12-20T14:20:35;7.20;99.90
9915;DHT22;4996;48.746;9.174;2023-12-20T14:23:04;7.10;99.90
9915;DHT22;4996;48.746;9.174;2023-12-20T14:25:30;7.10;99.90
9915;DHT22;4996;48.746;9.174;2023-12-20T14:27:56;7.10;99.90
9915;DHT22;4996;48.746;9.174;2023-12-20T14:30:22;7.20;99.90
9915;DHT22;4996;48.746;9.174;2023-12-20T14:32:48;7.10;99.90
9915;DHT22;4996;48.746;9.174;2023-12-20T14:35:14;7.00;99.90
9915;DHT22;4996;48.746;9.174;2023-12-20T14:37:39;7.00;99.90
9915;DHT22;4996;48.746;9.174;2023-12-20T14:40:07;6.80;99.90
9915;DHT22;4996;48.746;9.174;2023-12-20T14:42:36;6.90;99.90
9915;DHT22;4996;48.746;9.174;2023-12-20T14:45:01;6.90;99.90
9915;DHT22;4996;48.746;9.174;2023-12-20T14:47:27;6.80;99.90
9915;DHT22;4996;48.746;9.174;2023-12-20T14:49:52;6.80;99.90
9915;DHT22;4996;48.746;9.174;2023-12-20T14:52:18;6.70;99.90
9915;DHT22;4996;48.746;9.174;2023-12-20T14:54:44;6.50;99.90
9915;DHT22;4996;48.746;9.174;2023-12-20T14:57:10;6.40;99.90
9915;DHT22;4996;48.746;9.174;2023-12-20T14:59:36;6.60;99.90
9915;DHT22;4996;48.746;9.174;2023-12-20T15:02:01;6.90;99.90
9915;DHT22;4996;48.746;9.174;2023-12-20T15:04:31;7.10;99.90
9915;DHT22;4996;48.746;9.174;2023-12-20T15:06:56;7.10;99.90
9915;DHT22;4996;48.746;9.174;2023-12-20T15:09:22;7.10;99.90
9915;DHT22;4996;48.746;9.174;2023-12-20T15:11:47;7.20;99.90
9915;DHT22;4996;48.746;9.174;2023-12-20T15:14:13;7.00;99.90
9915;DHT22;4996;48.746;9.174;2023-12-20T15:16:44;7.00;99.90
9915;DHT22;4996;48.746;9.174;2023-12-20T15:19:09;6.80;99.90
9915;DHT22;4996;48.746;9.174;2023-12-20T15:21:35;6.80;99.90
9915;DHT22;4996;48.746;9.174;2023-12-20T15:24:05;6.70;99.90
9915;DHT22;4996;48.746;9.174;2023-12-20T15:26:37;6.80;99.90
9915;DHT22;4996;48.746;9.174;2023-12-20T15:29:03;6.80;99.90
9915;DHT22;4996;48.746;9.174;2023-12-20T15:31:29;6.60;99.90
9915;DHT22;4996;48.746;9.174;2023-12-20T15:33:56;6.50;99.90
9915;DHT22;4996;48.746;9.174;2023-12-20T15:36:22;6.30;99.90
9915;DHT22;4996;48.746;9.174;2023-12-20T15:38:48;6.30;99.90
9915;DHT22;4996;48.746;9.174;2023-12-20T15:41:20;6.10;99.90
9915;DHT22;4996;48.746;9.174;2023-12-20T15:43:46;6.20;99.90
9915;DHT22;4996;48.746;9.174;2023-12-20T15:46:11;6.10;99.90
9915;DHT22;4996;48.746;9.174;2023-12-20T15:48:37;6.20;99.90
9915;DHT22;4996;48.746;9.174;2023-12-20T15:51:07;6.30;99.90
9915;DHT22;4996;48.746;9.174;2023-12-20T15:53:33;6.40;99.90
9915;DHT22;4996;48.746;9.174;2023-12-20T15:55:58;6.10;99.90
9915;DHT22;4996;48.746;9.174;2023-12-20T15:58:24;6.10;99.90
9915;DHT22;4996;48.746;9.174;2023-12-20T16:00:50;5.90;99.90
9915;DHT22;4996;48.746;9.174;2023-12-20T16:03:16;5.90;99.90
9915;DHT22;4996;48.746;9.174;2023-12-20T16:05:41;6.00;99.90
9915;DHT22;4996;48.746;9.174;2023-12-20T16:08:07;6.00;99.90
9915;DHT22;4996;48.746;9.174;2023-12-20T16:10:32;6.10;99.90
9915;DHT22;4996;48.746;9.174;2023-12-20T16:12:58;6.00;99.90